sensor_id;sensor_type;location;lat;lon;timestamp;temperature;humidity
3866;DHT22;1948;53.250;10.412;2022-08-21T00:01:52;16.70;99.90
3866;DHT22;1948;53.250;10.412;2022-08-21T00:04:20;16.60;99.90
3866;DHT22;1948;53.250;10.412;2022-08-21T00:06:54;16.60;99.90
3866;DHT22;1948;53.250;10.412;2022-08-21T00:09:21;16.60;99.90
3866;DHT22;1948;53.250;10.412;2022-08-21T00:11:48;16.60;99.90
3866;DHT22;1948;53.250;10.412;2022-08-21T00:14:16;16.50;99.90
3866;DHT22;1948;53.250;10.412;2022-08-21T00:16:43;16.50;99.90
3866;DHT22;1948;53.250;10.412;2022-08-21T00:19:13;16.50;99.90
3866;DHT22;1948;53.250;10.412;2022-08-21T00:21:45;16.50;99.90
3866;DHT22;1948;53.250;10.412;2022-08-21T00:24:12;16.50;99.90
3866;DHT22;1948;53.250;10.412;2022-08-21T00:26:39;16.50;99.90
3866;DHT22;1948;53.250;10.412;2022-08-21T00:29:06;16.50;99.90
3866;DHT22;1948;53.250;10.412;2022-08-21T00:31:33;16.40;99.90
3866;DHT22;1948;53.250;10.412;2022-08-21T00:34:03;16.30;99.90
3866;DHT22;1948;53.250;10.412;2022-08-21T00:36:30;16.30;99.90
3866;DHT22;1948;53.250;10.412;2022-08-21T00:38:57;16.30;99.90
3866;DHT22;1948;53.250;10.412;2022-08-21T00:41:25;16.20;99.90
3866;DHT22;1948;53.250;10.412;2022-08-21T00:44:06;16.10;99.90
3866;DHT22;1948;53.250;10.412;2022-08-21T00:46:35;16.00;99.90
3866;DHT22;1948;53.250;10.412;2022-08-21T00:49:03;15.80;99.90
3866;DHT22;1948;53.250;10.412;2022-08-21T00:51:42;15.70;99.90
3866;DHT22;1948;53.250;10.412;2022-08-21T00:54:12;15.60;99.90
3866;DHT22;1948;53.250;10.412;2022-08-21T00:56:44;15.60;99.90
3866;DHT22;1948;53.250;10.412;2022-08-21T00:59:18;15.60;99.90
3866;DHT22;1948;53.250;10.412;2022-08-21T01:01:49;15.50;99.90
3866;DHT22;1948;53.250;10.412;2022-08-21T01:04:16;15.60;99.90
3866;DHT22;1948;53.250;10.412;2022-08-21T01:06:48;15.50;99.90
3866;DHT22;1948;53.250;10.412;2022-08-21T01:09:15;15.50;99.90
3866;DHT22;1948;53.250;10.412;2022-08-21T01:11:47;15.50;99.90
3866;DHT22;1948;53.250;10.412;2022-08-21T01:14:17;15.50;99.90
3866;DHT22;1948;53.250;10.412;2022-08-21T01:16:51;15.40;99.90
3866;DHT22;1948;53.250;10.412;2022-08-21T01:19:20;15.50;99.90
3866;DHT22;1948;53.250;10.412;2022-08-21T01:21:51;15.40;99.90
3866;DHT22;1948;53.250;10.412;2022-08-21T01:24:21;15.40;99.90
3866;DHT22;1948;53.250;10.412;2022-08-21T01:26:51;15.40;99.90
3866;DHT22;1948;53.250;10.412;2022-08-21T01:29:38;15.30;99.90
3866;DHT22;1948;53.250;10.412;2022-08-21T01:32:14;15.30;99.90
3866;DHT22;1948;53.250;10.412;2022-08-21T01:34:47;15.30;99.90
3866;DHT22;1948;53.250;10.412;2022-08-21T01:37:18;15.30;99.90
3866;DHT22;1948;53.250;10.412;2022-08-21T01:39:48;15.20;99.90
3866;DHT22;1948;53.250;10.412;2022-08-21T01:42:18;15.10;99.90
3866;DHT22;1948;53.250;10.412;2022-08-21T01:44:45;14.90;99.90
3866;DHT22;1948;53.250;10.412;2022-08-21T01:47:14;14.90;99.90
3866;DHT22;1948;53.250;10.412;2022-08-21T01:49:44;14.80;99.90
3866;DHT22;1948;53.250;10.412;2022-08-21T01:52:11;14.70;99.90
3866;DHT22;1948;53.250;10.412;2022-08-21T01:54:39;14.70;99.90
3866;DHT22;1948;53.250;10.412;2022-08-21T01:57:06;14.80;99.90
3866;DHT22;1948;53.250;10.412;2022-08-21T01:59:34;14.70;99.90
3866;DHT22;1948;53.250;10.412;2022-08-21T02:02:03;14.50;99.90
3866;DHT22;1948;53.250;10.412;2022-08-21T02:04:31;14.40;99.90
3866;DHT22;1948;53.250;10.412;2022-08-21T02:07:00;14.40;99.90
3866;DHT22;1948;53.250;10.412;2022-08-21T02:09:28;14.40;99.90
3866;DHT22;1948;53.250;10.412;2022-08-21T02:11:58;14.30;99.90
3866;DHT22;1948;53.250;10.412;2022-08-21T02:14:25;14.30;99.90
3866;DHT22;1948;53.250;10.412;2022-08-21T02:16:59;14.20;99.90
3866;DHT22;1948;53.250;10.412;2022-08-21T02:19:37;14.20;99.90
3866;DHT22;1948;53.250;10.412;2022-08-21T02:22:07;14.20;99.90
3866;DHT22;1948;53.250;10.412;2022-08-21T02:24:36;14.30;99.90
3866;DHT22;1948;53.250;10.412;2022-08-21T02:27:24;14.20;99.90
3866;DHT22;1948;53.250;10.412;2022-08-21T02:29:55;14.20;99.90
3866;DHT22;1948;53.250;10.412;2022-08-21T02:32:25;14.20;99.90
3866;DHT22;1948;53.250;10.412;2022-08-21T02:34:53;14.20;99.90
3866;DHT22;1948;53.250;10.412;2022-08-21T02:37:21;14.20;99.90
3866;DHT22;1948;53.250;10.412;2022-08-21T02:39:48;14.30;99.90
3866;DHT22;1948;53.250;10.412;2022-08-21T02:42:15;14.20;99.90
3866;DHT22;1948;53.250;10.412;2022-08-21T02:44:47;14.20;99.90
3866;DHT22;1948;53.250;10.412;2022-08-21T02:47:14;14.10;99.90
3866;DHT22;1948;53.250;10.412;2022-08-21T02:49:44;14.10;99.90
3866;DHT22;1948;53.250;10.412;2022-08-21T02:52:16;14.00;99.90
3866;DHT22;1948;53.250;10.412;2022-08-21T02:54:46;14.00;99.90
3866;DHT22;1948;53.250;10.412;2022-08-21T02:57:16;13.90;99.90
3866;DHT22;1948;53.250;10.412;2022-08-21T02:59:42;13.90;99.90
3866;DHT22;1948;53.250;10.412;2022-08-21T03:02:13;13.90;99.90
3866;DHT22;1948;53.250;10.412;2022-08-21T03:04:43;13.90;99.90
3866;DHT22;1948;53.250;10.412;2022-08-21T03:07:12;13.90;99.90
3866;DHT22;1948;53.250;10.412;2022-08-21T03:09:39;13.90;99.90
3866;DHT22;1948;53.250;10.412;2022-08-21T03:12:21;13.90;99.90
3866;DHT22;1948;53.250;10.412;2022-08-21T03:14:55;13.80;99.90
3866;DHT22;1948;53.250;10.412;2022-08-21T03:17:25;13.90;99.90
3866;DHT22;1948;53.250;10.412;2022-08-21T03:19:57;14.00;99.90
3866;DHT22;1948;53.250;10.412;2022-08-21T03:22:25;13.90;99.90
3866;DHT22;1948;53.250;10.412;2022-08-21T03:24:56;13.90;99.90
3866;DHT22;1948;53.250;10.412;2022-08-21T03:27:23;13.80;99.90
3866;DHT22;1948;53.250;10.412;2022-08-21T03:29:53;13.90;99.90
3866;DHT22;1948;53.250;10.412;2022-08-21T03:32:21;13.80;99.90
3866;DHT22;1948;53.250;10.412;2022-08-21T03:34:48;13.80;99.90
3866;DHT22;1948;53.250;10.412;2022-08-21T03:37:15;13.80;99.90
3866;DHT22;1948;53.250;10.412;2022-08-21T03:39:44;13.80;99.90
3866;DHT22;1948;53.250;10.412;2022-08-21T03:42:14;13.80;99.90
3866;DHT22;1948;53.250;10.412;2022-08-21T03:44:41;13.90;99.90
3866;DHT22;1948;53.250;10.412;2022-08-21T03:47:08;14.00;99.90
3866;DHT22;1948;53.250;10.412;2022-08-21T03:49:36;14.10;99.90
3866;DHT22;1948;53.250;10.412;2022-08-21T03:52:04;14.10;99.90
3866;DHT22;1948;53.250;10.412;2022-08-21T03:54:31;14.10;99.90
3866;DHT22;1948;53.250;10.412;2022-08-21T03:56:58;14.10;99.90
3866;DHT22;1948;53.250;10.412;2022-08-21T03:59:28;14.10;99.90
3866;DHT22;1948;53.250;10.412;2022-08-21T04:01:58;14.00;99.90
3866;DHT22;1948;53.250;10.412;2022-08-21T04:04:27;13.90;99.90
3866;DHT22;1948;53.250;10.412;2022-08-21T04:06:56;13.90;99.90
3866;DHT22;1948;53.250;10.412;2022-08-21T04:09:26;13.80;99.90
3866;DHT22;1948;53.250;10.412;2022-08-21T04:11:53;13.80;99.90
3866;DHT22;1948;53.250;10.412;2022-08-21T04:14:20;13.70;99.90
3866;DHT22;1948;53.250;10.412;2022-08-21T04:16:52;13.70;99.90
3866;DHT22;1948;53.250;10.412;2022-08-21T04:19:19;13.70;99.90
3866;DHT22;1948;53.250;10.412;2022-08-21T04:21:48;13.60;99.90
3866;DHT22;1948;53.250;10.412;2022-08-21T04:24:18;13.60;99.90
3866;DHT22;1948;53.250;10.412;2022-08-21T04:26:45;13.50;99.90
3866;DHT22;1948;53.250;10.412;2022-08-21T04:29:17;13.50;99.90
3866;DHT22;1948;53.250;10.412;2022-08-21T04:31:44;13.50;99.90
3866;DHT22;1948;53.250;10.412;2022-08-21T04:34:11;13.60;99.90
3866;DHT22;1948;53.250;10.412;2022-08-21T04:36:38;13.40;99.90
3866;DHT22;1948;53.250;10.412;2022-08-21T04:39:05;13.50;99.90
3866;DHT22;1948;53.250;10.412;2022-08-21T04:41:36;13.30;99.90
3866;DHT22;1948;53.250;10.412;2022-08-21T04:44:03;13.20;99.90
3866;DHT22;1948;53.250;10.412;2022-08-21T04:46:33;13.20;99.90
3866;DHT22;1948;53.250;10.412;2022-08-21T04:49:01;13.20;99.90
3866;DHT22;1948;53.250;10.412;2022-08-21T04:51:34;13.20;99.90
3866;DHT22;1948;53.250;10.412;2022-08-21T04:54:16;13.40;99.90
3866;DHT22;1948;53.250;10.412;2022-08-21T04:56:49;13.40;99.90
3866;DHT22;1948;53.250;10.412;2022-08-21T04:59:27;13.50;99.90
3866;DHT22;1948;53.250;10.412;2022-08-21T05:02:03;13.50;99.90
3866;DHT22;1948;53.250;10.412;2022-08-21T05:04:35;13.60;99.90
3866;DHT22;1948;53.250;10.412;2022-08-21T05:07:10;13.70;99.90
3866;DHT22;1948;53.250;10.412;2022-08-21T05:09:40;13.70;99.90
3866;DHT22;1948;53.250;10.412;2022-08-21T05:12:10;13.70;99.90
3866;DHT22;1948;53.250;10.412;2022-08-21T05:14:37;13.70;99.90
3866;DHT22;1948;53.250;10.412;2022-08-21T05:17:05;13.70;99.90
3866;DHT22;1948;53.250;10.412;2022-08-21T05:19:32;13.70;99.90
3866;DHT22;1948;53.250;10.412;2022-08-21T05:21:58;13.80;99.90
3866;DHT22;1948;53.250;10.412;2022-08-21T05:24:27;13.90;99.90
3866;DHT22;1948;53.250;10.412;2022-08-21T05:26:54;13.90;99.90
3866;DHT22;1948;53.250;10.412;2022-08-21T05:29:21;14.00;99.90
3866;DHT22;1948;53.250;10.412;2022-08-21T05:31:48;14.10;99.90
3866;DHT22;1948;53.250;10.412;2022-08-21T05:34:23;14.20;99.90
3866;DHT22;1948;53.250;10.412;2022-08-21T05:36:52;14.30;99.90
3866;DHT22;1948;53.250;10.412;2022-08-21T05:39:21;14.30;99.90
3866;DHT22;1948;53.250;10.412;2022-08-21T05:41:48;14.50;99.90
3866;DHT22;1948;53.250;10.412;2022-08-21T05:44:15;14.50;99.90
3866;DHT22;1948;53.250;10.412;2022-08-21T05:46:47;14.70;99.90
3866;DHT22;1948;53.250;10.412;2022-08-21T05:49:14;14.90;99.90
3866;DHT22;1948;53.250;10.412;2022-08-21T05:51:41;15.10;99.90
3866;DHT22;1948;53.250;10.412;2022-08-21T05:54:08;15.30;99.90
3866;DHT22;1948;53.250;10.412;2022-08-21T05:56:35;15.40;99.90
3866;DHT22;1948;53.250;10.412;2022-08-21T05:59:05;15.60;99.90
3866;DHT22;1948;53.250;10.412;2022-08-21T06:01:34;16.00;99.90
3866;DHT22;1948;53.250;10.412;2022-08-21T06:04:04;16.20;99.90
3866;DHT22;1948;53.250;10.412;2022-08-21T06:06:31;16.30;99.90
3866;DHT22;1948;53.250;10.412;2022-08-21T06:09:01;16.50;99.90
3866;DHT22;1948;53.250;10.412;2022-08-21T06:11:29;16.50;99.90
3866;DHT22;1948;53.250;10.412;2022-08-21T06:13:56;16.50;99.90
3866;DHT22;1948;53.250;10.412;2022-08-21T06:16:24;16.60;99.90
3866;DHT22;1948;53.250;10.412;2022-08-21T06:18:51;16.70;99.90
3866;DHT22;1948;53.250;10.412;2022-08-21T06:21:19;16.80;99.90
3866;DHT22;1948;53.250;10.412;2022-08-21T06:23:45;17.00;99.90
3866;DHT22;1948;53.250;10.412;2022-08-21T06:26:13;17.10;99.90
3866;DHT22;1948;53.250;10.412;2022-08-21T06:28:42;17.20;99.90
3866;DHT22;1948;53.250;10.412;2022-08-21T06:31:21;17.30;99.90
3866;DHT22;1948;53.250;10.412;2022-08-21T06:33:51;17.60;99.90
3866;DHT22;1948;53.250;10.412;2022-08-21T06:36:19;17.60;99.90
3866;DHT22;1948;53.250;10.412;2022-08-21T06:38:49;17.70;99.90
3866;DHT22;1948;53.250;10.412;2022-08-21T06:41:26;17.70;99.90
3866;DHT22;1948;53.250;10.412;2022-08-21T06:43:54;17.60;99.90
3866;DHT22;1948;53.250;10.412;2022-08-21T06:46:23;17.60;99.90
3866;DHT22;1948;53.250;10.412;2022-08-21T06:48:52;17.60;99.90
3866;DHT22;1948;53.250;10.412;2022-08-21T06:51:19;17.60;99.90
3866;DHT22;1948;53.250;10.412;2022-08-21T06:53:46;17.60;99.90
3866;DHT22;1948;53.250;10.412;2022-08-21T06:56:13;17.60;99.90
3866;DHT22;1948;53.250;10.412;2022-08-21T06:58:40;17.70;99.90
3866;DHT22;1948;53.250;10.412;2022-08-21T07:01:09;17.90;99.90
3866;DHT22;1948;53.250;10.412;2022-08-21T07:03:40;18.10;99.90
3866;DHT22;1948;53.250;10.412;2022-08-21T07:06:11;18.20;99.90
3866;DHT22;1948;53.250;10.412;2022-08-21T07:08:38;18.50;99.90
3866;DHT22;1948;53.250;10.412;2022-08-21T07:11:17;18.80;99.90
3866;DHT22;1948;53.250;10.412;2022-08-21T07:13:47;19.20;99.90
3866;DHT22;1948;53.250;10.412;2022-08-21T07:16:15;19.40;99.90
3866;DHT22;1948;53.250;10.412;2022-08-21T07:18:42;19.60;99.90
3866;DHT22;1948;53.250;10.412;2022-08-21T07:21:09;19.80;99.90
3866;DHT22;1948;53.250;10.412;2022-08-21T07:23:42;20.10;99.90
3866;DHT22;1948;53.250;10.412;2022-08-21T07:26:12;20.30;99.90
3866;DHT22;1948;53.250;10.412;2022-08-21T07:28:41;20.60;99.90
3866;DHT22;1948;53.250;10.412;2022-08-21T07:31:10;20.90;99.90
3866;DHT22;1948;53.250;10.412;2022-08-21T07:33:42;20.90;99.90
3866;DHT22;1948;53.250;10.412;2022-08-21T07:36:12;20.90;99.90
3866;DHT22;1948;53.250;10.412;2022-08-21T07:38:41;21.00;99.90
3866;DHT22;1948;53.250;10.412;2022-08-21T07:41:21;21.10;99.90
3866;DHT22;1948;53.250;10.412;2022-08-21T07:43:50;21.10;99.90
3866;DHT22;1948;53.250;10.412;2022-08-21T07:46:21;21.30;99.90
3866;DHT22;1948;53.250;10.412;2022-08-21T07:48:48;21.50;99.90
3866;DHT22;1948;53.250;10.412;2022-08-21T07:51:21;21.80;99.90
3866;DHT22;1948;53.250;10.412;2022-08-21T07:53:57;22.10;99.90
3866;DHT22;1948;53.250;10.412;2022-08-21T07:56:27;22.30;99.90
3866;DHT22;1948;53.250;10.412;2022-08-21T07:58:54;22.50;99.90
3866;DHT22;1948;53.250;10.412;2022-08-21T08:01:24;22.60;99.90
3866;DHT22;1948;53.250;10.412;2022-08-21T08:03:54;22.50;99.90
3866;DHT22;1948;53.250;10.412;2022-08-21T08:06:21;22.40;99.90
3866;DHT22;1948;53.250;10.412;2022-08-21T08:08:49;22.60;99.90
3866;DHT22;1948;53.250;10.412;2022-08-21T08:11:19;22.80;99.90
3866;DHT22;1948;53.250;10.412;2022-08-21T08:13:51;22.90;99.90
3866;DHT22;1948;53.250;10.412;2022-08-21T08:16:18;22.80;99.90
3866;DHT22;1948;53.250;10.412;2022-08-21T08:18:48;23.00;99.90
3866;DHT22;1948;53.250;10.412;2022-08-21T08:21:15;23.20;99.90
3866;DHT22;1948;53.250;10.412;2022-08-21T08:23:42;23.10;99.90
3866;DHT22;1948;53.250;10.412;2022-08-21T08:26:11;23.20;99.90
3866;DHT22;1948;53.250;10.412;2022-08-21T08:28:42;23.40;99.90
3866;DHT22;1948;53.250;10.412;2022-08-21T08:31:14;23.40;99.90
3866;DHT22;1948;53.250;10.412;2022-08-21T08:33:41;23.70;99.90
3866;DHT22;1948;53.250;10.412;2022-08-21T08:36:14;23.90;99.90
3866;DHT22;1948;53.250;10.412;2022-08-21T08:38:46;24.00;99.90
3866;DHT22;1948;53.250;10.412;2022-08-21T08:41:19;24.30;99.90
3866;DHT22;1948;53.250;10.412;2022-08-21T08:44:00;24.40;99.90
3866;DHT22;1948;53.250;10.412;2022-08-21T08:49:17;25.30;99.90
3866;DHT22;1948;53.250;10.412;2022-08-21T08:52:11;26.00;99.90
3866;DHT22;1948;53.250;10.412;2022-08-21T08:55:11;26.30;99.90
3866;DHT22;1948;53.250;10.412;2022-08-21T08:57:45;26.20;99.90
3866;DHT22;1948;53.250;10.412;2022-08-21T09:00:18;26.30;99.90
3866;DHT22;1948;53.250;10.412;2022-08-21T09:02:52;25.80;99.90
3866;DHT22;1948;53.250;10.412;2022-08-21T09:05:26;25.80;99.90
3866;DHT22;1948;53.250;10.412;2022-08-21T09:11:01;25.50;99.90
3866;DHT22;1948;53.250;10.412;2022-08-21T09:13:56;25.70;99.90
3866;DHT22;1948;53.250;10.412;2022-08-21T09:17:12;25.90;99.90
3866;DHT22;1948;53.250;10.412;2022-08-21T09:20:01;26.20;99.90
3866;DHT22;1948;53.250;10.412;2022-08-21T09:25:24;26.70;99.90
3866;DHT22;1948;53.250;10.412;2022-08-21T09:27:55;27.40;99.90
3866;DHT22;1948;53.250;10.412;2022-08-21T09:30:32;27.90;99.90
3866;DHT22;1948;53.250;10.412;2022-08-21T09:33:01;27.70;99.90
3866;DHT22;1948;53.250;10.412;2022-08-21T09:35:28;27.30;99.90
3866;DHT22;1948;53.250;10.412;2022-08-21T09:38:06;27.30;99.90
3866;DHT22;1948;53.250;10.412;2022-08-21T09:43:21;27.60;99.90
3866;DHT22;1948;53.250;10.412;2022-08-21T09:48:49;27.90;99.90
3866;DHT22;1948;53.250;10.412;2022-08-21T09:51:23;27.30;99.90
3866;DHT22;1948;53.250;10.412;2022-08-21T09:59:33;27.60;99.90
3866;DHT22;1948;53.250;10.412;2022-08-21T10:02:34;27.60;99.90
3866;DHT22;1948;53.250;10.412;2022-08-21T10:05:22;27.60;99.90
3866;DHT22;1948;53.250;10.412;2022-08-21T10:07:52;27.60;99.90
3866;DHT22;1948;53.250;10.412;2022-08-21T10:10:30;27.50;99.90
3866;DHT22;1948;53.250;10.412;2022-08-21T10:19:02;27.80;99.90
3866;DHT22;1948;53.250;10.412;2022-08-21T10:33:40;30.20;99.90
3866;DHT22;1948;53.250;10.412;2022-08-21T10:36:41;29.90;99.90
3866;DHT22;1948;53.250;10.412;2022-08-21T10:48:05;29.60;99.90
3866;DHT22;1948;53.250;10.412;2022-08-21T10:50:48;29.70;99.90
3866;DHT22;1948;53.250;10.412;2022-08-21T11:04:48;29.50;99.90
3866;DHT22;1948;53.250;10.412;2022-08-21T11:07:22;29.40;99.90
3866;DHT22;1948;53.250;10.412;2022-08-21T11:10:08;29.90;99.90
3866;DHT22;1948;53.250;10.412;2022-08-21T11:12:59;30.10;99.90
3866;DHT22;1948;53.250;10.412;2022-08-21T11:18:35;29.80;99.90
3866;DHT22;1948;53.250;10.412;2022-08-21T11:30:13;29.60;99.90
3866;DHT22;1948;53.250;10.412;2022-08-21T11:33:16;30.00;99.90
3866;DHT22;1948;53.250;10.412;2022-08-21T11:36:02;30.50;99.90
3866;DHT22;1948;53.250;10.412;2022-08-21T11:42:06;31.30;99.90
3866;DHT22;1948;53.250;10.412;2022-08-21T11:47:33;30.60;99.70
3866;DHT22;1948;53.250;10.412;2022-08-21T11:50:31;30.50;99.70
3866;DHT22;1948;53.250;10.412;2022-08-21T11:53:09;30.20;98.80
3866;DHT22;1948;53.250;10.412;2022-08-21T11:55:56;30.40;97.90
3866;DHT22;1948;53.250;10.412;2022-08-21T11:58:41;30.50;97.90
3866;DHT22;1948;53.250;10.412;2022-08-21T12:01:39;30.30;98.80
3866;DHT22;1948;53.250;10.412;2022-08-21T12:04:29;30.50;98.60
3866;DHT22;1948;53.250;10.412;2022-08-21T12:07:18;31.00;98.00
3866;DHT22;1948;53.250;10.412;2022-08-21T12:10:10;31.20;97.20
3866;DHT22;1948;53.250;10.412;2022-08-21T12:12:42;31.50;96.20
3866;DHT22;1948;53.250;10.412;2022-08-21T12:18:00;32.10;94.80
3866;DHT22;1948;53.250;10.412;2022-08-21T12:23:26;31.90;94.30
3866;DHT22;1948;53.250;10.412;2022-08-21T12:28:31;32.00;94.00
3866;DHT22;1948;53.250;10.412;2022-08-21T12:30:58;32.00;94.00
3866;DHT22;1948;53.250;10.412;2022-08-21T12:33:40;31.90;94.00
3866;DHT22;1948;53.250;10.412;2022-08-21T12:36:15;31.90;93.40
3866;DHT22;1948;53.250;10.412;2022-08-21T12:39:04;32.00;92.80
3866;DHT22;1948;53.250;10.412;2022-08-21T12:41:45;32.20;92.50
3866;DHT22;1948;53.250;10.412;2022-08-21T12:44:22;32.20;92.50
3866;DHT22;1948;53.250;10.412;2022-08-21T12:47:14;32.30;92.30
3866;DHT22;1948;53.250;10.412;2022-08-21T12:50:08;32.30;91.50
3866;DHT22;1948;53.250;10.412;2022-08-21T12:52:45;32.00;91.70
3866;DHT22;1948;53.250;10.412;2022-08-21T12:55:28;31.90;92.00
3866;DHT22;1948;53.250;10.412;2022-08-21T12:57:57;32.10;92.20
3866;DHT22;1948;53.250;10.412;2022-08-21T13:00:29;31.90;91.70
3866;DHT22;1948;53.250;10.412;2022-08-21T13:02:57;32.00;91.90
3866;DHT22;1948;53.250;10.412;2022-08-21T13:05:32;32.10;91.80
3866;DHT22;1948;53.250;10.412;2022-08-21T13:08:04;32.30;92.10
3866;DHT22;1948;53.250;10.412;2022-08-21T13:10:34;32.40;92.30
3866;DHT22;1948;53.250;10.412;2022-08-21T13:13:05;32.40;92.30
3866;DHT22;1948;53.250;10.412;2022-08-21T13:15:42;32.40;92.30
3866;DHT22;1948;53.250;10.412;2022-08-21T13:18:25;32.50;92.50
3866;DHT22;1948;53.250;10.412;2022-08-21T13:23:34;32.60;92.20
3866;DHT22;1948;53.250;10.412;2022-08-21T13:26:01;32.60;91.60
3866;DHT22;1948;53.250;10.412;2022-08-21T13:28:36;32.50;90.80
3866;DHT22;1948;53.250;10.412;2022-08-21T13:31:09;32.40;91.10
3866;DHT22;1948;53.250;10.412;2022-08-21T13:33:43;32.40;91.60
3866;DHT22;1948;53.250;10.412;2022-08-21T13:36:26;32.20;91.60
3866;DHT22;1948;53.250;10.412;2022-08-21T13:38:56;32.20;91.40
3866;DHT22;1948;53.250;10.412;2022-08-21T13:41:33;32.00;91.30
3866;DHT22;1948;53.250;10.412;2022-08-21T13:46:48;31.90;91.20
3866;DHT22;1948;53.250;10.412;2022-08-21T13:49:18;31.80;91.30
3866;DHT22;1948;53.250;10.412;2022-08-21T13:51:47;31.50;91.80
3866;DHT22;1948;53.250;10.412;2022-08-21T13:54:35;31.30;92.00
3866;DHT22;1948;53.250;10.412;2022-08-21T13:57:24;31.40;92.10
3866;DHT22;1948;53.250;10.412;2022-08-21T14:00:19;31.20;91.90
3866;DHT22;1948;53.250;10.412;2022-08-21T14:02:53;31.10;92.00
3866;DHT22;1948;53.250;10.412;2022-08-21T14:05:33;31.20;92.10
3866;DHT22;1948;53.250;10.412;2022-08-21T14:08:27;31.30;92.20
3866;DHT22;1948;53.250;10.412;2022-08-21T14:11:04;31.40;92.20
3866;DHT22;1948;53.250;10.412;2022-08-21T14:16:19;31.30;92.00
3866;DHT22;1948;53.250;10.412;2022-08-21T14:18:49;31.10;92.10
3866;DHT22;1948;53.250;10.412;2022-08-21T14:21:41;30.90;92.40
3866;DHT22;1948;53.250;10.412;2022-08-21T14:24:24;30.90;92.40
3866;DHT22;1948;53.250;10.412;2022-08-21T14:26:55;30.80;92.50
3866;DHT22;1948;53.250;10.412;2022-08-21T14:29:26;30.80;92.40
3866;DHT22;1948;53.250;10.412;2022-08-21T14:32:07;30.60;92.50
3866;DHT22;1948;53.250;10.412;2022-08-21T14:34:51;30.50;92.60
3866;DHT22;1948;53.250;10.412;2022-08-21T14:37:24;30.50;92.70
3866;DHT22;1948;53.250;10.412;2022-08-21T14:39:52;30.50;92.60
3866;DHT22;1948;53.250;10.412;2022-08-21T14:42:19;30.40;92.40
3866;DHT22;1948;53.250;10.412;2022-08-21T14:44:47;30.20;92.50
3866;DHT22;1948;53.250;10.412;2022-08-21T14:47:14;30.30;93.00
3866;DHT22;1948;53.250;10.412;2022-08-21T14:49:45;30.30;92.80
3866;DHT22;1948;53.250;10.412;2022-08-21T14:52:12;30.40;92.90
3866;DHT22;1948;53.250;10.412;2022-08-21T14:54:44;30.50;92.70
3866;DHT22;1948;53.250;10.412;2022-08-21T14:57:11;30.50;92.20
3866;DHT22;1948;53.250;10.412;2022-08-21T14:59:41;30.40;92.40
3866;DHT22;1948;53.250;10.412;2022-08-21T15:02:09;30.40;92.50
3866;DHT22;1948;53.250;10.412;2022-08-21T15:04:36;30.20;92.30
3866;DHT22;1948;53.250;10.412;2022-08-21T15:07:04;30.20;92.30
3866;DHT22;1948;53.250;10.412;2022-08-21T15:09:31;30.20;92.40
3866;DHT22;1948;53.250;10.412;2022-08-21T15:12:00;30.10;92.70
3866;DHT22;1948;53.250;10.412;2022-08-21T15:14:34;30.20;93.00
3866;DHT22;1948;53.250;10.412;2022-08-21T15:17:03;30.30;92.50
3866;DHT22;1948;53.250;10.412;2022-08-21T15:19:38;30.40;92.40
3866;DHT22;1948;53.250;10.412;2022-08-21T15:22:06;30.40;91.60
3866;DHT22;1948;53.250;10.412;2022-08-21T15:24:46;30.40;91.40
3866;DHT22;1948;53.250;10.412;2022-08-21T15:27:13;30.10;91.70
3866;DHT22;1948;53.250;10.412;2022-08-21T15:29:42;29.90;92.50
3866;DHT22;1948;53.250;10.412;2022-08-21T15:32:24;29.60;93.00
3866;DHT22;1948;53.250;10.412;2022-08-21T15:34:55;29.50;93.40
3866;DHT22;1948;53.250;10.412;2022-08-21T15:37:25;29.30;93.90
3866;DHT22;1948;53.250;10.412;2022-08-21T15:39:52;29.30;94.00
3866;DHT22;1948;53.250;10.412;2022-08-21T15:42:23;29.30;94.10
3866;DHT22;1948;53.250;10.412;2022-08-21T15:44:56;29.30;94.20
3866;DHT22;1948;53.250;10.412;2022-08-21T15:47:32;29.40;93.80
3866;DHT22;1948;53.250;10.412;2022-08-21T15:50:01;29.40;93.70
3866;DHT22;1948;53.250;10.412;2022-08-21T15:52:31;29.30;93.80
3866;DHT22;1948;53.250;10.412;2022-08-21T15:54:58;29.30;93.60
3866;DHT22;1948;53.250;10.412;2022-08-21T15:57:31;29.20;93.80
3866;DHT22;1948;53.250;10.412;2022-08-21T16:00:10;29.00;93.80
3866;DHT22;1948;53.250;10.412;2022-08-21T16:02:48;28.90;93.90
3866;DHT22;1948;53.250;10.412;2022-08-21T16:05:22;28.80;94.30
3866;DHT22;1948;53.250;10.412;2022-08-21T16:07:50;28.90;94.60
3866;DHT22;1948;53.250;10.412;2022-08-21T16:10:22;28.90;94.30
3866;DHT22;1948;53.250;10.412;2022-08-21T16:13:01;28.90;94.20
3866;DHT22;1948;53.250;10.412;2022-08-21T16:15:30;28.90;94.30
3866;DHT22;1948;53.250;10.412;2022-08-21T16:17:57;28.90;94.30
3866;DHT22;1948;53.250;10.412;2022-08-21T16:20:28;28.80;94.40
3866;DHT22;1948;53.250;10.412;2022-08-21T16:22:56;28.70;94.30
3866;DHT22;1948;53.250;10.412;2022-08-21T16:25:24;28.60;94.00
3866;DHT22;1948;53.250;10.412;2022-08-21T16:27:56;28.60;94.20
3866;DHT22;1948;53.250;10.412;2022-08-21T16:30:25;28.50;94.40
3866;DHT22;1948;53.250;10.412;2022-08-21T16:32:55;28.40;94.50
3866;DHT22;1948;53.250;10.412;2022-08-21T16:35:22;28.30;94.30
3866;DHT22;1948;53.250;10.412;2022-08-21T16:37:53;28.20;94.40
3866;DHT22;1948;53.250;10.412;2022-08-21T16:40:23;28.20;94.80
3866;DHT22;1948;53.250;10.412;2022-08-21T16:42:52;28.20;94.90
3866;DHT22;1948;53.250;10.412;2022-08-21T16:45:19;28.10;95.20
3866;DHT22;1948;53.250;10.412;2022-08-21T16:47:47;28.10;95.20
3866;DHT22;1948;53.250;10.412;2022-08-21T16:50:16;28.10;95.30
3866;DHT22;1948;53.250;10.412;2022-08-21T16:52:47;28.00;95.40
3866;DHT22;1948;53.250;10.412;2022-08-21T16:55:15;28.00;95.30
3866;DHT22;1948;53.250;10.412;2022-08-21T16:57:45;27.90;95.60
3866;DHT22;1948;53.250;10.412;2022-08-21T17:00:12;27.80;95.70
3866;DHT22;1948;53.250;10.412;2022-08-21T17:02:51;27.70;95.60
3866;DHT22;1948;53.250;10.412;2022-08-21T17:05:19;27.50;95.60
3866;DHT22;1948;53.250;10.412;2022-08-21T17:07:46;27.50;95.90
3866;DHT22;1948;53.250;10.412;2022-08-21T17:10:15;27.40;96.20
3866;DHT22;1948;53.250;10.412;2022-08-21T17:12:52;27.40;96.20
3866;DHT22;1948;53.250;10.412;2022-08-21T17:15:25;27.30;96.20
3866;DHT22;1948;53.250;10.412;2022-08-21T17:17:55;27.20;96.40
3866;DHT22;1948;53.250;10.412;2022-08-21T17:20:22;27.20;96.70
3866;DHT22;1948;53.250;10.412;2022-08-21T17:22:51;27.00;96.90
3866;DHT22;1948;53.250;10.412;2022-08-21T17:25:21;27.00;96.90
3866;DHT22;1948;53.250;10.412;2022-08-21T17:27:49;27.00;97.10
3866;DHT22;1948;53.250;10.412;2022-08-21T17:30:19;26.90;97.30
3866;DHT22;1948;53.250;10.412;2022-08-21T17:32:52;26.80;97.70
3866;DHT22;1948;53.250;10.412;2022-08-21T17:35:20;26.70;98.20
3866;DHT22;1948;53.250;10.412;2022-08-21T17:37:47;26.70;98.50
3866;DHT22;1948;53.250;10.412;2022-08-21T17:40:15;26.70;98.70
3866;DHT22;1948;53.250;10.412;2022-08-21T17:42:45;26.50;99.20
3866;DHT22;1948;53.250;10.412;2022-08-21T17:45:15;26.50;99.30
3866;DHT22;1948;53.250;10.412;2022-08-21T17:47:46;26.40;99.80
3866;DHT22;1948;53.250;10.412;2022-08-21T17:50:15;26.40;99.90